Time;durP1;ratioP1;P1;durP2;ratioP2;P2;SDS_P1;SDS_P2;PMS_P1;PMS_P2;Temp;Humidity;BMP_temperature;BMP_pressure;BME280_temperature;BME280_humidity;BME280_pressure;Samples;Min_cycle;Max_cycle;Signal;HPM_P1;HPM_P2
2024/01/10 00:00:05;;;;;;;4.05;2.80;;;2.40;98.50;;;;;;4997486;28;20602;-43
2024/01/10 00:02:33;;;;;;;3.78;2.42;;;2.40;98.50;;;;;;5022056;28;20596;-44
2024/01/10 00:05:01;;;;;;;3.88;2.15;;;2.40;98.50;;;;;;5022914;28;20204;-44
2024/01/10 00:07:29;;;;;;;3.03;2.50;;;2.40;98.60;;;;;;5029110;28;20221;-45
2024/01/10 00:09:59;;;;;;;3.28;2.35;;;2.40;98.60;;;;;;5023447;28;20197;-44
2024/01/10 00:12:33;;;;;;;3.47;2.83;;;2.40;98.60;;;;;;5027626;28;20208;-44
2024/01/10 00:15:01;;;;;;;2.75;2.33;;;2.40;98.60;;;;;;5018158;28;20185;-45
2024/01/10 00:17:31;;;;;;;3.85;2.17;;;2.40;98.50;;;;;;5025746;28;20222;-45
2024/01/10 00:19:59;;;;;;;3.80;2.45;;;2.30;98.50;;;;;;5022950;28;20198;-44
2024/01/10 00:22:27;;;;;;;4.38;2.60;;;2.40;98.60;;;;;;5025839;28;20205;-44
2024/01/10 00:24:56;;;;;;;3.40;2.40;;;2.30;98.50;;;;;;5027622;28;20814;-44
2024/01/10 00:27:24;;;;;;;3.30;2.20;;;2.30;98.50;;;;;;5023764;28;20556;-44
2024/01/10 00:29:52;;;;;;;4.43;2.35;;;2.30;98.50;;;;;;5014166;28;20604;-44
2024/01/10 00:32:20;;;;;;;3.75;2.28;;;2.30;98.50;;;;;;5026061;28;20232;-42
2024/01/10 00:34:50;;;;;;;3.10;2.10;;;2.30;98.50;;;;;;5025898;28;20197;-45
2024/01/10 00:37:18;;;;;;;3.45;2.47;;;2.30;98.50;;;;;;5022956;28;20197;-45
2024/01/10 00:39:46;;;;;;;2.90;2.20;;;2.30;98.50;;;;;;5026713;28;20185;-44
2024/01/10 00:42:14;;;;;;;4.75;2.45;;;2.30;98.60;;;;;;5019222;28;20237;-44
2024/01/10 00:44:43;;;;;;;3.30;2.60;;;2.30;98.50;;;;;;5010983;28;20285;-44
2024/01/10 00:47:12;;;;;;;3.83;2.28;;;2.30;98.50;;;;;;5009043;28;20190;-44
2024/01/10 00:49:40;;;;;;;3.25;2.22;;;2.30;98.50;;;;;;5018129;28;20232;-44
2024/01/10 00:52:09;;;;;;;4.07;2.60;;;2.30;98.50;;;;;;5016566;28;20214;-44
2024/01/10 00:54:37;;;;;;;3.60;2.58;;;2.30;98.50;;;;;;5019337;28;20280;-45
2024/01/10 00:57:06;;;;;;;4.45;2.63;;;2.30;98.50;;;;;;5027127;28;20193;-45
2024/01/10 00:59:34;;;;;;;3.88;2.47;;;2.30;98.50;;;;;;5012090;28;20629;-44
2024/01/10 01:02:02;;;;;;;4.38;2.63;;;2.30;98.50;;;;;;5027052;28;20695;-44
2024/01/10 01:04:30;;;;;;;3.40;2.40;;;2.30;98.50;;;;;;5022146;28;20284;-45
2024/01/10 01:06:58;;;;;;;3.33;2.42;;;2.30;98.50;;;;;;5020375;28;20225;-45
2024/01/10 01:09:28;;;;;;;2.88;2.10;;;2.20;98.50;;;;;;5020204;28;20212;-45
2024/01/10 01:11:56;;;;;;;3.08;2.28;;;2.20;98.40;;;;;;5010867;28;20221;-44
2024/01/10 01:14:24;;;;;;;3.40;2.28;;;2.30;98.50;;;;;;5015953;28;20222;-44
2024/01/10 01:16:52;;;;;;;3.88;2.30;;;2.20;98.40;;;;;;5008163;28;20576;-44
2024/01/10 01:19:21;;;;;;;3.83;2.80;;;2.20;98.40;;;;;;5019161;28;20213;-44
2024/01/10 01:21:49;;;;;;;3.72;2.20;;;2.20;98.50;;;;;;5025109;28;20222;-45
2024/01/10 01:24:17;;;;;;;3.20;2.30;;;2.20;98.40;;;;;;5022603;28;20567;-45
2024/01/10 01:26:46;;;;;;;2.72;2.30;;;2.20;98.40;;;;;;5027006;28;20193;-45
2024/01/10 01:29:15;;;;;;;3.45;2.65;;;2.20;98.40;;;;;;5015746;28;20699;-45
2024/01/10 01:31:43;;;;;;;4.68;2.72;;;2.20;98.50;;;;;;5003990;28;20214;-45
2024/01/10 01:34:12;;;;;;;4.47;2.40;;;2.20;98.50;;;;;;5027794;28;20283;-45
2024/01/10 01:36:40;;;;;;;4.28;2.70;;;2.20;98.40;;;;;;5027113;28;20204;-44
2024/01/10 01:39:10;;;;;;;2.97;2.03;;;2.20;98.40;;;;;;5014514;28;20715;-44
2024/01/10 01:41:38;;;;;;;3.70;2.25;;;2.20;98.40;;;;;;5025704;28;20594;-45
2024/01/10 01:44:07;;;;;;;3.95;2.72;;;2.20;98.40;;;;;;5005307;28;20221;-45
2024/01/10 01:46:36;;;;;;;3.47;2.50;;;2.20;98.50;;;;;;5025699;28;20259;-47
2024/01/10 01:49:05;;;;;;;4.93;2.63;;;2.20;98.40;;;;;;5025964;28;20267;-47
2024/01/10 01:51:35;;;;;;;3.97;2.80;;;2.20;98.40;;;;;;5027886;28;20225;-48
2024/01/10 01:54:04;;;;;;;3.90;2.55;;;2.20;98.40;;;;;;5019720;28;20836;-45
2024/01/10 01:56:33;;;;;;;3.75;2.10;;;2.20;98.50;;;;;;5027447;28;20194;-47
2024/01/10 01:59:02;;;;;;;4.57;2.50;;;2.20;98.40;;;;;;5017910;28;20585;-46
2024/01/10 02:01:32;;;;;;;3.25;2.08;;;2.10;98.40;;;;;;5016418;28;20871;-46
2024/01/10 02:04:02;;;;;;;3.55;2.30;;;2.20;98.40;;;;;;5016153;28;20217;-46
2024/01/10 02:06:31;;;;;;;3.22;2.40;;;2.10;98.40;;;;;;5029023;28;20742;-48
2024/01/10 02:09:00;;;;;;;4.00;2.80;;;2.10;98.40;;;;;;5019083;28;20221;-47
2024/01/10 02:11:28;;;;;;;3.30;2.53;;;2.10;98.40;;;;;;5029889;28;20309;-47
2024/01/10 02:13:56;;;;;;;4.53;2.50;;;2.10;98.40;;;;;;5038747;28;20217;-45
2024/01/10 02:16:25;;;;;;;7.25;3.05;;;2.10;98.40;;;;;;5041603;28;20197;-47
2024/01/10 02:18:54;;;;;;;4.38;2.53;;;2.10;98.40;;;;;;5036514;28;20229;-47
2024/01/10 02:21:23;;;;;;;4.18;2.67;;;2.10;98.40;;;;;;5042590;28;20213;-47
2024/01/10 02:23:51;;;;;;;5.05;3.20;;;2.10;98.60;;;;;;5032756;28;20225;-50
2024/01/10 02:26:21;;;;;;;4.25;3.10;;;2.10;98.40;;;;;;5023081;28;20200;-49
2024/01/10 02:28:49;;;;;;;4.20;2.53;;;2.10;98.40;;;;;;5022576;28;20224;-46
2024/01/10 02:31:17;;;;;;;4.43;2.55;;;2.10;98.40;;;;;;5032266;28;20241;-46
2024/01/10 02:33:45;;;;;;;3.53;2.47;;;2.10;98.40;;;;;;5029242;28;20223;-46
2024/01/10 02:36:13;;;;;;;4.95;3.03;;;2.10;98.40;;;;;;5017525;28;20217;-47
2024/01/10 02:38:41;;;;;;;3.47;2.58;;;2.10;98.40;;;;;;5009085;28;20221;-45
2024/01/10 02:41:10;;;;;;;2.67;2.47;;;2.10;98.40;;;;;;5012562;28;20229;-47
2024/01/10 02:43:39;;;;;;;3.45;2.20;;;2.10;98.40;;;;;;5006653;28;20218;-51
2024/01/10 02:46:08;;;;;;;3.70;1.95;;;2.10;98.40;;;;;;5008512;28;20587;-48
2024/01/10 02:48:36;;;;;;;3.70;2.28;;;2.10;98.40;;;;;;5007405;28;20246;-48
2024/01/10 02:51:04;;;;;;;4.50;2.60;;;2.00;98.40;;;;;;5014362;28;20224;-47
2024/01/10 02:53:32;;;;;;;2.63;2.28;;;2.10;98.40;;;;;;5001552;28;20237;-50
2024/01/10 02:56:00;;;;;;;4.13;2.65;;;2.10;98.40;;;;;;5010494;28;20553;-45
2024/01/10 02:58:29;;;;;;;3.90;2.75;;;2.00;98.30;;;;;;5009719;28;20232;-47
2024/01/10 03:01:00;;;;;;;2.97;2.53;;;2.00;98.40;;;;;;5022351;28;20230;-47
2024/01/10 03:03:28;;;;;;;3.05;2.50;;;2.00;98.40;;;;;;5001467;28;20218;-49
2024/01/10 03:05:57;;;;;;;3.17;2.40;;;2.00;98.30;;;;;;5013170;28;20252;-46
2024/01/10 03:08:25;;;;;;;3.38;2.53;;;2.00;98.30;;;;;;5020455;28;20299;-46
2024/01/10 03:10:54;;;;;;;2.95;2.17;;;2.00;98.30;;;;;;5018418;28;20237;-46
2024/01/10 03:13:22;;;;;;;3.95;2.92;;;2.00;98.40;;;;;;5016514;28;20451;-47
2024/01/10 03:15:50;;;;;;;5.40;3.13;;;2.00;98.30;;;;;;5016133;28;20280;-45
2024/01/10 03:18:19;;;;;;;3.60;2.83;;;2.00;98.30;;;;;;5011752;28;20244;-47
2024/01/10 03:20:47;;;;;;;3.90;2.30;;;2.00;98.30;;;;;;5010991;28;20606;-47
2024/01/10 03:23:15;;;;;;;4.50;3.45;;;2.00;98.30;;;;;;5011357;28;20211;-46
2024/01/10 03:25:44;;;;;;;2.80;2.20;;;2.00;98.30;;;;;;5011746;28;20591;-47
2024/01/10 03:28:16;;;;;;;4.07;2.70;;;2.00;98.30;;;;;;5011259;28;20618;-46
2024/01/10 03:30:44;;;;;;;3.92;2.85;;;2.00;98.40;;;;;;5016302;28;20691;-45
2024/01/10 03:33:13;;;;;;;3.53;2.53;;;2.00;98.40;;;;;;5010370;28;20711;-48
2024/01/10 03:35:45;;;;;;;2.63;2.00;;;2.00;98.30;;;;;;5016248;28;20202;-46
2024/01/10 03:38:16;;;;;;;3.28;2.35;;;2.00;98.30;;;;;;5011330;28;20777;-47
2024/01/10 03:40:44;;;;;;;5.05;2.60;;;2.00;98.30;;;;;;5010912;28;20603;-47
2024/01/10 03:43:13;;;;;;;4.18;3.00;;;2.00;98.30;;;;;;5010707;28;20221;-47
2024/01/10 03:45:41;;;;;;;4.55;2.63;;;1.90;98.30;;;;;;5016698;28;20190;-48
2024/01/10 03:48:09;;;;;;;3.90;2.78;;;1.90;98.30;;;;;;5014651;28;20231;-48
2024/01/10 03:50:37;;;;;;;4.30;3.17;;;1.90;98.30;;;;;;5019945;28;20206;-47
2024/01/10 03:53:07;;;;;;;3.53;3.08;;;1.90;98.30;;;;;;5012449;28;20226;-46
2024/01/10 03:55:35;;;;;;;5.45;2.80;;;1.90;98.30;;;;;;5013701;28;20208;-46
2024/01/10 03:58:03;;;;;;;3.95;2.92;;;1.90;98.30;;;;;;5010383;28;20225;-48
2024/01/10 04:00:31;;;;;;;3.70;2.97;;;1.90;98.30;;;;;;5011981;28;20214;-46
2024/01/10 04:03:00;;;;;;;3.95;2.47;;;1.90;98.80;;;;;;5017975;28;20283;-46
2024/01/10 04:05:28;;;;;;;4.25;2.78;;;1.90;98.30;;;;;;5029810;28;20207;-47
2024/01/10 04:07:57;;;;;;;3.80;2.42;;;1.90;98.30;;;;;;5010880;28;20214;-45
2024/01/10 04:10:27;;;;;;;4.35;3.50;;;1.90;98.30;;;;;;5010689;28;20218;-47
2024/01/10 04:12:55;;;;;;;4.03;2.80;;;1.90;98.30;;;;;;5010437;28;20220;-48
2024/01/10 04:15:23;;;;;;;3.45;2.83;;;1.90;98.20;;;;;;5012418;28;20620;-49
2024/01/10 04:17:51;;;;;;;3.75;2.45;;;1.90;98.30;;;;;;5012427;28;20217;-46
2024/01/10 04:20:20;;;;;;;3.63;2.70;;;1.90;98.30;;;;;;5012204;28;20225;-47
2024/01/10 04:22:48;;;;;;;5.45;3.35;;;1.90;98.30;;;;;;5017558;28;20217;-46
2024/01/10 04:25:16;;;;;;;5.20;3.10;;;1.90;98.20;;;;;;5010074;28;20205;-47
2024/01/10 04:27:45;;;;;;;5.00;3.30;;;1.80;98.20;;;;;;5011762;28;20288;-46
2024/01/10 04:30:15;;;;;;;3.10;2.40;;;1.80;98.20;;;;;;5014094;28;20218;-44
2024/01/10 04:32:43;;;;;;;3.75;2.38;;;1.80;98.20;;;;;;5011943;28;20234;-46
2024/01/10 04:35:11;;;;;;;3.22;2.20;;;1.80;98.20;;;;;;5010993;28;20200;-48
2024/01/10 04:37:40;;;;;;;3.13;2.50;;;1.80;98.20;;;;;;5012337;28;20312;-49
2024/01/10 04:40:09;;;;;;;3.33;2.65;;;1.80;98.20;;;;;;5010675;28;20228;-47
2024/01/10 04:42:37;;;;;;;7.00;2.70;;;1.80;98.20;;;;;;5009275;28;20226;-47
2024/01/10 04:45:08;;;;;;;4.05;3.30;;;1.80;98.20;;;;;;5009653;28;20664;-45
2024/01/10 04:47:36;;;;;;;4.22;2.58;;;1.80;98.30;;;;;;5010897;28;20223;-45
2024/01/10 04:50:05;;;;;;;3.70;2.33;;;1.80;98.20;;;;;;5010328;28;20566;-48
2024/01/10 04:52:37;;;;;;;3.80;2.50;;;1.80;98.30;;;;;;5001625;28;20222;-45
2024/01/10 04:55:07;;;;;;;3.25;2.65;;;1.80;98.20;;;;;;5017583;28;20651;-45
2024/01/10 04:57:36;;;;;;;4.55;3.00;;;1.80;98.20;;;;;;5009662;28;20225;-48
2024/01/10 05:00:05;;;;;;;3.35;2.85;;;1.80;98.20;;;;;;5024780;28;20204;-45
2024/01/10 05:02:35;;;;;;;3.67;2.65;;;1.80;98.20;;;;;;5017272;28;20585;-44
2024/01/10 05:05:04;;;;;;;3.80;3.00;;;1.80;98.30;;;;;;5012965;28;20194;-48
2024/01/10 05:07:32;;;;;;;3.92;2.85;;;1.70;98.20;;;;;;5009388;28;20197;-50
2024/01/10 05:10:00;;;;;;;4.05;3.00;;;1.80;98.30;;;;;;5001484;28;20408;-46
2024/01/10 05:12:28;;;;;;;3.90;2.78;;;1.80;98.20;;;;;;5016991;28;20205;-47
2024/01/10 05:14:56;;;;;;;5.50;3.25;;;1.80;98.30;;;;;;5013228;28;20790;-44
2024/01/10 05:17:25;;;;;;;3.75;3.10;;;1.80;98.20;;;;;;5012833;28;20680;-46
2024/01/10 05:19:54;;;;;;;4.38;3.15;;;1.70;98.20;;;;;;5010100;28;20205;-47
2024/01/10 05:22:23;;;;;;;3.55;2.13;;;1.70;98.20;;;;;;5012726;28;20211;-48
2024/01/10 05:24:51;;;;;;;4.65;3.50;;;1.70;98.20;;;;;;5011033;28;20200;-47
2024/01/10 05:27:19;;;;;;;5.05;3.22;;;1.70;98.20;;;;;;5012493;28;20195;-46
2024/01/10 05:29:48;;;;;;;4.20;2.75;;;1.70;98.20;;;;;;5015582;28;20193;-47
2024/01/10 05:32:16;;;;;;;3.90;3.20;;;1.70;98.20;;;;;;5016842;28;20225;-46
2024/01/10 05:34:45;;;;;;;3.22;2.47;;;1.70;98.20;;;;;;5015299;28;20695;-48
2024/01/10 05:37:14;;;;;;;3.17;2.40;;;1.70;98.20;;;;;;5009876;28;20198;-45
2024/01/10 05:39:42;;;;;;;4.15;3.00;;;1.70;98.30;;;;;;5009066;28;20206;-44
2024/01/10 05:42:11;;;;;;;3.35;2.60;;;1.70;98.20;;;;;;5007826;28;20206;-45
2024/01/10 05:44:40;;;;;;;4.18;2.78;;;1.70;98.20;;;;;;5006931;28;20250;-44
2024/01/10 05:47:08;;;;;;;4.10;3.00;;;1.70;98.20;;;;;;5015264;28;20595;-45
2024/01/10 05:49:36;;;;;;;3.50;2.72;;;1.70;98.20;;;;;;5007491;28;20213;-44
2024/01/10 05:52:04;;;;;;;4.40;3.47;;;1.70;98.20;;;;;;5015576;28;20213;-44
2024/01/10 05:54:34;;;;;;;3.75;2.60;;;1.70;98.20;;;;;;5009365;28;20230;-44
2024/01/10 05:57:02;;;;;;;4.63;3.17;;;1.60;98.20;;;;;;5014167;28;20201;-44
2024/01/10 05:59:31;;;;;;;4.57;3.10;;;1.70;98.20;;;;;;5014394;28;20229;-44
2024/01/10 06:01:59;;;;;;;5.50;3.03;;;1.70;98.20;;;;;;5018435;28;20312;-44
2024/01/10 06:04:30;;;;;;;4.07;2.80;;;1.60;98.20;;;;;;5010634;28;20229;-44
2024/01/10 06:06:59;;;;;;;4.30;2.85;;;1.70;98.20;;;;;;5025084;28;20655;-45
2024/01/10 06:09:27;;;;;;;5.20;3.67;;;1.60;98.20;;;;;;5015936;28;20234;-44
2024/01/10 06:11:56;;;;;;;3.92;2.70;;;1.60;98.20;;;;;;5017417;28;20232;-43
2024/01/10 06:14:24;;;;;;;4.18;2.80;;;1.60;98.20;;;;;;5008373;28;20220;-44
2024/01/10 06:16:52;;;;;;;3.42;3.03;;;1.60;98.10;;;;;;5009295;28;20198;-44
2024/01/10 06:19:23;;;;;;;4.80;2.70;;;1.60;98.20;;;;;;5016434;28;20244;-44
2024/01/10 06:21:52;;;;;;;3.58;2.80;;;1.60;98.20;;;;;;5017027;28;20797;-44
2024/01/10 06:24:20;;;;;;;3.80;3.38;;;1.60;98.20;;;;;;5011516;28;20274;-44
2024/01/10 06:26:49;;;;;;;4.68;2.50;;;1.60;98.20;;;;;;5021551;28;20193;-44
2024/01/10 06:29:19;;;;;;;3.60;2.45;;;1.60;98.20;;;;;;5018005;28;20222;-44
2024/01/10 06:31:48;;;;;;;3.95;2.35;;;1.60;98.20;;;;;;5013499;28;20225;-44
2024/01/10 06:34:16;;;;;;;4.40;3.08;;;1.60;98.10;;;;;;5012571;28;20246;-44
2024/01/10 06:36:44;;;;;;;3.28;2.88;;;1.60;98.20;;;;;;5014126;28;20205;-44
2024/01/10 06:39:13;;;;;;;4.05;2.80;;;1.60;98.10;;;;;;5016316;28;20224;-44
2024/01/10 06:41:42;;;;;;;3.65;2.78;;;1.60;98.10;;;;;;5016179;28;20218;-44
2024/01/10 06:44:11;;;;;;;4.78;3.13;;;1.60;98.10;;;;;;5013511;28;20217;-44
2024/01/10 06:46:41;;;;;;;4.47;3.47;;;1.60;98.10;;;;;;5015773;28;20222;-44
2024/01/10 06:49:09;;;;;;;5.93;3.35;;;1.60;98.10;;;;;;5010943;28;20652;-44
2024/01/10 06:51:37;;;;;;;3.58;2.60;;;1.60;98.10;;;;;;5017954;28;20297;-45
2024/01/10 06:54:06;;;;;;;4.13;3.03;;;1.50;98.10;;;;;;5014714;28;20217;-44
2024/01/10 06:56:34;;;;;;;4.70;3.47;;;1.50;98.10;;;;;;5020802;28;20202;-44
2024/01/10 06:59:03;;;;;;;3.78;2.70;;;1.50;98.10;;;;;;5020271;28;20251;-44
2024/01/10 07:01:31;;;;;;;4.00;2.80;;;1.50;98.10;;;;;;5013283;28;20226;-44
2024/01/10 07:04:01;;;;;;;5.32;3.17;;;1.50;98.10;;;;;;5012680;28;20229;-45
2024/01/10 07:06:29;;;;;;;4.95;3.13;;;1.50;98.10;;;;;;5020932;28;20655;-45
2024/01/10 07:08:58;;;;;;;4.25;3.45;;;1.50;98.10;;;;;;5012411;28;20244;-44
2024/01/10 07:11:28;;;;;;;4.65;3.10;;;1.50;98.10;;;;;;5003139;28;20261;-44
2024/01/10 07:13:56;;;;;;;4.13;3.15;;;1.50;98.10;;;;;;5010006;28;20248;-44
2024/01/10 07:16:25;;;;;;;6.22;3.17;;;1.50;98.10;;;;;;5017340;28;20194;-44
2024/01/10 07:18:53;;;;;;;4.43;3.20;;;1.50;98.10;;;;;;5013233;28;20221;-43
2024/01/10 07:21:23;;;;;;;4.60;2.95;;;1.50;98.10;;;;;;5012914;28;20301;-44
2024/01/10 07:23:51;;;;;;;4.35;2.88;;;1.50;98.10;;;;;;5014715;28;20221;-44
2024/01/10 07:26:19;;;;;;;4.72;3.05;;;1.50;98.10;;;;;;5011034;28;20650;-43
2024/01/10 07:28:48;;;;;;;4.40;3.78;;;1.50;98.10;;;;;;5014315;28;20229;-45
2024/01/10 07:31:16;;;;;;;3.88;3.15;;;1.50;98.10;;;;;;5014095;28;20224;-42
2024/01/10 07:33:44;;;;;;;4.30;3.20;;;1.50;98.10;;;;;;5017150;28;20235;-45
2024/01/10 07:36:13;;;;;;;3.70;2.80;;;1.50;98.10;;;;;;5014259;28;20232;-44
2024/01/10 07:38:42;;;;;;;4.82;3.10;;;1.50;98.10;;;;;;5015975;28;20754;-45
2024/01/10 07:41:11;;;;;;;5.55;3.15;;;1.40;98.00;;;;;;5027626;28;20219;-44
2024/01/10 07:43:40;;;;;;;4.15;3.58;;;1.40;98.00;;;;;;5026974;28;20236;-44
2024/01/10 07:46:08;;;;;;;3.28;2.53;;;1.40;98.00;;;;;;5014937;28;20197;-44
2024/01/10 07:48:37;;;;;;;3.72;2.90;;;1.40;98.00;;;;;;5037915;28;20228;-44
2024/01/10 07:51:06;;;;;;;4.88;3.15;;;1.40;98.00;;;;;;5034465;28;20225;-44
2024/01/10 07:53:34;;;;;;;5.38;3.08;;;1.40;98.00;;;;;;5028502;28;20269;-45
2024/01/10 07:56:04;;;;;;;4.55;3.13;;;1.40;98.00;;;;;;5028159;28;20309;-44
2024/01/10 07:58:32;;;;;;;4.70;3.38;;;1.40;98.00;;;;;;5026892;28;20240;-45
2024/01/10 08:01:01;;;;;;;5.07;3.22;;;1.40;98.00;;;;;;5027496;28;20843;-45
2024/01/10 08:03:29;;;;;;;3.85;2.90;;;1.40;98.00;;;;;;5014624;28;20222;-44
2024/01/10 08:05:58;;;;;;;3.97;2.90;;;1.40;98.00;;;;;;5013677;28;20220;-45
2024/01/10 08:08:27;;;;;;;5.35;3.00;;;1.40;98.00;;;;;;5011821;28;20253;-43
2024/01/10 08:10:56;;;;;;;5.32;3.53;;;1.40;98.00;;;;;;5013222;28;20241;-44
2024/01/10 08:13:26;;;;;;;5.25;3.10;;;1.40;98.00;;;;;;5010749;28;20222;-43
2024/01/10 08:15:54;;;;;;;5.30;3.58;;;1.40;98.00;;;;;;5018235;28;20216;-44
2024/01/10 08:18:22;;;;;;;4.38;3.35;;;1.40;98.00;;;;;;5007380;28;20218;-44
2024/01/10 08:20:50;;;;;;;4.75;3.60;;;1.40;98.00;;;;;;5011150;28;20311;-44
2024/01/10 08:23:19;;;;;;;4.30;2.85;;;1.40;98.00;;;;;;5008544;28;20245;-44
2024/01/10 08:25:48;;;;;;;7.28;4.45;;;1.40;98.00;;;;;;5015814;28;20773;-44
2024/01/10 08:28:17;;;;;;;3.13;2.80;;;1.30;98.00;;;;;;5016828;28;20245;-43
2024/01/10 08:30:47;;;;;;;3.55;2.75;;;1.30;98.00;;;;;;5014273;28;20228;-44
2024/01/10 08:33:15;;;;;;;6.25;3.17;;;1.30;98.00;;;;;;5011075;28;20301;-44
2024/01/10 08:35:43;;;;;;;6.70;4.05;;;1.30;98.00;;;;;;5012714;28;20700;-44
2024/01/10 08:38:11;;;;;;;4.40;3.38;;;1.30;97.90;;;;;;5011826;28;20218;-44
2024/01/10 08:40:39;;;;;;;4.90;3.67;;;1.30;98.00;;;;;;5012941;28;20249;-44
2024/01/10 08:43:08;;;;;;;5.35;3.50;;;1.30;97.90;;;;;;5020198;28;20308;-45
2024/01/10 08:45:36;;;;;;;5.13;3.05;;;1.30;97.90;;;;;;5014194;28;20251;-44
2024/01/10 08:48:06;;;;;;;5.38;3.50;;;1.30;98.00;;;;;;5014003;28;20224;-44
2024/01/10 08:50:37;;;;;;;3.45;2.75;;;1.30;98.00;;;;;;5012599;28;20457;-44
2024/01/10 08:53:05;;;;;;;4.88;3.17;;;1.30;97.90;;;;;;5011239;28;20221;-44
2024/01/10 08:55:36;;;;;;;4.30;2.75;;;1.30;97.90;;;;;;5011147;28;20218;-43
2024/01/10 08:58:05;;;;;;;5.32;3.20;;;1.30;97.90;;;;;;5015864;28;20249;-44
2024/01/10 09:00:33;;;;;;;3.17;2.60;;;1.30;98.00;;;;;;5011439;28;20615;-43
2024/01/10 09:03:07;;;;;;;4.00;2.47;;;1.30;98.40;;;;;;5012318;28;20236;-44
2024/01/10 09:05:35;;;;;;;4.50;2.92;;;1.30;98.00;;;;;;5014643;28;20202;-44
2024/01/10 09:08:04;;;;;;;5.68;3.47;;;1.30;97.90;;;;;;5014103;28;20444;-44
2024/01/10 09:10:32;;;;;;;4.85;3.35;;;1.30;98.00;;;;;;5018783;28;20389;-44
2024/01/10 09:13:00;;;;;;;5.82;3.90;;;1.20;97.90;;;;;;5017057;28;20222;-44
2024/01/10 09:15:28;;;;;;;4.07;3.30;;;1.30;97.90;;;;;;5011474;28;20221;-45
2024/01/10 09:17:56;;;;;;;4.43;3.10;;;1.30;97.90;;;;;;5011922;28;20304;-44
2024/01/10 09:20:26;;;;;;;3.70;2.70;;;1.30;98.00;;;;;;5008071;28;20229;-44
2024/01/10 09:22:54;;;;;;;4.85;3.03;;;1.20;97.90;;;;;;5012468;28;20233;-43
2024/01/10 09:25:22;;;;;;;5.90;3.45;;;1.20;98.40;;;;;;5010715;28;20237;-44
2024/01/10 09:27:51;;;;;;;4.57;3.00;;;1.20;97.90;;;;;;5011389;28;20225;-44
2024/01/10 09:30:19;;;;;;;5.65;3.47;;;1.20;97.90;;;;;;5010995;28;20223;-44
2024/01/10 09:32:47;;;;;;;6.13;3.45;;;1.20;97.90;;;;;;5011179;28;20220;-44
2024/01/10 09:35:17;;;;;;;4.70;3.22;;;1.20;97.90;;;;;;5018061;28;20646;-44
2024/01/10 09:37:47;;;;;;;4.50;3.45;;;1.20;97.90;;;;;;5011538;28;20227;-43
2024/01/10 09:40:17;;;;;;;4.68;3.10;;;1.20;98.00;;;;;;5011520;28;20210;-44
2024/01/10 09:42:46;;;;;;;4.28;3.08;;;1.20;97.90;;;;;;5014604;28;20219;-44
2024/01/10 09:45:18;;;;;;;4.85;3.33;;;1.20;98.40;;;;;;5010489;28;20337;-44
2024/01/10 09:47:49;;;;;;;3.97;3.30;;;1.20;97.90;;;;;;5013731;28;20217;-44
2024/01/10 09:50:17;;;;;;;3.80;2.72;;;1.20;97.90;;;;;;5019928;28;20640;-43
2024/01/10 09:52:51;;;;;;;4.75;3.67;;;1.20;97.90;;;;;;5011996;28;20234;-43
2024/01/10 09:55:23;;;;;;;4.90;3.72;;;1.20;98.00;;;;;;5014917;28;20198;-44
2024/01/10 09:57:53;;;;;;;5.35;3.17;;;1.20;97.90;;;;;;4996648;28;20313;-45
2024/01/10 10:00:23;;;;;;;4.38;3.33;;;1.20;97.90;;;;;;5014440;28;20730;-44
2024/01/10 10:02:57;;;;;;;5.13;3.30;;;1.20;97.90;;;;;;5014773;28;20221;-43
2024/01/10 10:05:25;;;;;;;4.88;3.35;;;1.20;98.00;;;;;;5018191;28;20595;-45
2024/01/10 10:07:55;;;;;;;5.45;3.42;;;1.20;98.00;;;;;;5022646;28;20276;-44
2024/01/10 10:10:24;;;;;;;4.63;3.13;;;1.20;97.90;;;;;;5017724;28;20241;-44
2024/01/10 10:12:53;;;;;;;4.50;2.88;;;1.20;97.90;;;;;;5021289;28;20328;-44
2024/01/10 10:15:22;;;;;;;3.95;3.25;;;1.20;97.90;;;;;;5017833;28;20189;-44
2024/01/10 10:17:53;;;;;;;5.38;2.90;;;1.20;97.90;;;;;;5011600;28;20221;-43
2024/01/10 10:20:23;;;;;;;5.90;3.40;;;1.20;97.90;;;;;;5009892;28;20284;-45
2024/01/10 10:23:03;;;;;;;6.18;3.53;;;1.20;97.90;;;;;;5011108;28;20222;-44
2024/01/10 10:25:33;;;;;;;5.35;3.15;;;1.20;97.80;;;;;;5019567;28;20833;-44
2024/01/10 10:28:03;;;;;;;5.55;3.45;;;1.10;97.80;;;;;;5010636;28;20255;-44
2024/01/10 10:30:33;;;;;;;6.78;4.10;;;1.20;97.90;;;;;;5010172;28;20245;-45
2024/01/10 10:33:03;;;;;;;5.20;3.92;;;1.20;97.90;;;;;;5000558;28;20312;-44
2024/01/10 10:35:35;;;;;;;5.85;3.63;;;1.20;97.90;;;;;;5010788;28;20882;-45
2024/01/10 10:38:10;;;;;;;5.63;3.80;;;1.10;97.80;;;;;;5010497;28;20302;-45
2024/01/10 10:40:39;;;;;;;6.53;3.75;;;1.10;97.90;;;;;;5011146;28;20662;-45
2024/01/10 10:43:15;;;;;;;4.90;3.50;;;1.10;97.90;;;;;;5017491;28;20229;-44
2024/01/10 10:45:47;;;;;;;4.88;3.45;;;1.10;97.90;;;;;;5011028;28;20197;-44
2024/01/10 10:48:19;;;;;;;4.88;3.25;;;1.10;97.90;;;;;;5010766;28;20218;-44
2024/01/10 10:51:06;;;;;;;4.55;3.42;;;1.10;97.90;;;;;;5013397;28;20228;-44
2024/01/10 10:53:37;;;;;;;4.57;3.10;;;1.10;97.90;;;;;;5007193;28;20325;-45
2024/01/10 10:56:07;;;;;;;5.80;3.42;;;1.10;97.90;;;;;;5010982;28;20197;-44
2024/01/10 10:58:40;;;;;;;6.30;3.20;;;1.10;97.90;;;;;;5016244;28;20707;-43
2024/01/10 11:01:10;;;;;;;5.13;3.50;;;1.10;97.90;;;;;;5010450;28;20225;-44
2024/01/10 11:03:41;;;;;;;4.65;3.17;;;1.10;97.90;;;;;;5010785;28;20284;-44
2024/01/10 11:06:10;;;;;;;4.32;3.08;;;1.10;97.80;;;;;;5015616;28;20292;-44
2024/01/10 11:08:44;;;;;;;6.35;3.63;;;1.10;97.90;;;;;;5010688;28;20749;-44
2024/01/10 11:11:26;;;;;;;5.20;3.38;;;1.10;97.90;;;;;;5020242;28;20331;-45
2024/01/10 11:14:09;;;;;;;4.90;3.58;;;1.10;97.90;;;;;;5013969;28;20225;-43
2024/01/10 11:17:18;;;;;;;4.80;3.35;;;1.10;97.90;;;;;;5014697;28;20219;-44
2024/01/10 11:20:11;;;;;;;4.55;3.40;;;1.10;97.90;;;;;;5014794;28;20221;-44
2024/01/10 11:22:58;;;;;;;5.60;3.10;;;1.10;97.90;;;;;;5014707;28;20249;-44
2024/01/10 11:25:29;;;;;;;3.88;3.00;;;1.10;97.90;;;;;;5014017;28;20630;-44
2024/01/10 11:27:57;;;;;;;4.05;3.10;;;1.10;97.90;;;;;;5014643;28;20221;-43
2024/01/10 11:30:34;;;;;;;4.72;2.97;;;1.10;98.00;;;;;;5012978;28;20228;-44
2024/01/10 11:33:18;;;;;;;8.10;4.88;;;1.10;97.90;;;;;;5013614;28;20316;-45
2024/01/10 11:36:09;;;;;;;4.38;3.00;;;1.10;97.90;;;;;;5015467;28;20275;-46
2024/01/10 11:38:43;;;;;;;7.22;4.00;;;1.10;97.90;;;;;;5013599;28;20235;-44
2024/01/10 11:41:14;;;;;;;5.78;4.05;;;1.10;97.90;;;;;;5011981;28;20613;-44
2024/01/10 11:43:42;;;;;;;5.45;3.47;;;1.10;97.90;;;;;;5012097;28;20223;-44
2024/01/10 11:46:12;;;;;;;4.72;3.70;;;1.10;97.90;;;;;;5022400;28;20404;-43
2024/01/10 11:48:41;;;;;;;6.25;3.60;;;1.10;97.90;;;;;;5019405;28;20719;-44
2024/01/10 11:51:10;;;;;;;4.70;3.38;;;1.10;97.90;;;;;;5016556;28;20218;-44
2024/01/10 11:53:46;;;;;;;5.28;3.63;;;1.10;97.90;;;;;;5010646;28;20221;-44
2024/01/10 11:56:18;;;;;;;5.43;4.05;;;1.10;98.00;;;;;;5017798;28;20204;-44
2024/01/10 11:59:02;;;;;;;6.90;3.97;;;1.10;98.00;;;;;;5013583;28;20651;-44
2024/01/10 12:01:31;;;;;;;4.13;3.05;;;1.00;97.90;;;;;;5020047;28;20250;-44
2024/01/10 12:03:59;;;;;;;4.13;3.00;;;1.00;98.00;;;;;;5013060;28;20217;-44
2024/01/10 12:06:46;;;;;;;6.10;3.60;;;1.10;98.00;;;;;;5020354;28;20663;-47
2024/01/10 12:09:15;;;;;;;4.20;2.70;;;1.00;98.00;;;;;;5023048;28;20228;-45
2024/01/10 12:11:45;;;;;;;6.32;3.70;;;1.00;98.00;;;;;;5024039;28;20321;-48
2024/01/10 12:14:14;;;;;;;4.07;3.17;;;1.10;98.00;;;;;;5015219;28;20270;-47
2024/01/10 12:16:42;;;;;;;5.60;4.30;;;1.00;98.00;;;;;;5018410;28;20600;-44
2024/01/10 12:19:10;;;;;;;5.93;3.65;;;1.10;97.90;;;;;;5011947;28;20461;-47
2024/01/10 12:21:39;;;;;;;7.72;3.90;;;1.10;97.90;;;;;;5013209;28;20423;-46
2024/01/10 12:24:07;;;;;;;5.63;4.03;;;1.10;97.90;;;;;;5012477;28;20709;-44
2024/01/10 12:26:36;;;;;;;6.03;4.07;;;1.10;98.00;;;;;;5014480;28;20190;-47
2024/01/10 12:29:06;;;;;;;6.47;4.15;;;1.10;98.00;;;;;;5017396;28;20241;-47
2024/01/10 12:31:35;;;;;;;4.80;3.50;;;1.10;98.00;;;;;;5003504;28;20240;-46
2024/01/10 12:34:03;;;;;;;6.50;3.50;;;1.00;98.00;;;;;;5013157;28;20322;-45
2024/01/10 12:36:35;;;;;;;4.82;3.42;;;1.00;98.10;;;;;;5020885;28;20284;-45
2024/01/10 12:39:06;;;;;;;5.57;3.90;;;1.00;98.00;;;;;;5014399;28;20231;-45
2024/01/10 12:41:35;;;;;;;5.75;3.72;;;1.00;98.00;;;;;;5015785;28;20577;-43
2024/01/10 12:44:06;;;;;;;6.20;4.00;;;1.00;98.00;;;;;;5019693;28;20220;-44
2024/01/10 12:46:36;;;;;;;6.60;3.70;;;1.00;98.00;;;;;;5032223;28;20229;-44
2024/01/10 12:49:06;;;;;;;4.55;3.30;;;1.00;98.10;;;;;;5028806;28;20246;-45
2024/01/10 12:51:36;;;;;;;6.03;3.83;;;1.00;98.00;;;;;;5028446;28;20225;-44
2024/01/10 12:54:04;;;;;;;7.07;4.85;;;1.00;98.00;;;;;;5032370;28;20224;-44
2024/01/10 12:56:32;;;;;;;21.50;11.98;;;1.00;97.90;;;;;;5039395;28;20484;-45
2024/01/10 12:59:01;;;;;;;16.42;10.48;;;1.00;93.10;;;;;;5040004;28;20252;-44
2024/01/10 13:01:29;;;;;;;14.43;10.65;;;1.00;94.70;;;;;;5043665;28;20225;-46
2024/01/10 13:03:58;;;;;;;11.75;8.02;;;1.00;95.40;;;;;;5042672;28;20224;-45
2024/01/10 13:06:28;;;;;;;12.32;8.55;;;1.00;95.50;;;;;;5015552;28;20197;-44
2024/01/10 13:08:56;;;;;;;12.98;8.90;;;1.00;95.50;;;;;;5026292;28;20336;-44